Time;durP1;ratioP1;P1;durP2;ratioP2;P2;SDS_P1;SDS_P2;PMS_P1;PMS_P2;Temp;Humidity;BMP_temperature;BMP_pressure;BME280_temperature;BME280_humidity;BME280_pressure;Samples;Min_cycle;Max_cycle;Signal;HPM_P1;HPM_P2
2023/05/31 00:01:17;;;;;;;5.78;2.88;;;23.40;50.00;;;;;;6153415;28;80013;-64
2023/05/31 00:04:17;;;;;;;5.00;3.10;;;23.30;50.00;;;;;;6153704;28;80424;-61
2023/05/31 00:07:18;;;;;;;5.45;2.88;;;23.30;50.00;;;;;;6153108;28;81039;-61
2023/05/31 00:10:18;;;;;;;5.25;2.50;;;23.30;50.10;;;;;;6152717;28;83147;-61
2023/05/31 00:13:19;;;;;;;4.68;2.92;;;23.40;50.10;;;;;;6153482;28;81772;-61
2023/05/31 00:16:19;;;;;;;6.88;2.60;;;23.30;50.10;;;;;;6152560;28;80565;-61
2023/05/31 00:19:20;;;;;;;6.20;2.72;;;23.30;50.10;;;;;;6164504;28;83348;-63
2023/05/31 00:22:21;;;;;;;5.50;2.80;;;23.30;50.20;;;;;;6152296;28;84227;-57
2023/05/31 00:25:21;;;;;;;5.40;3.03;;;23.30;50.10;;;;;;6151775;28;80552;-57
2023/05/31 00:28:22;;;;;;;5.40;2.90;;;23.40;50.10;;;;;;6150687;28;80903;-57
2023/05/31 00:31:22;;;;;;;3.33;2.53;;;23.30;50.10;;;;;;6146016;28;81545;-59
2023/05/31 00:34:23;;;;;;;4.90;2.53;;;23.30;50.10;;;;;;6152139;28;80955;-59
2023/05/31 00:37:23;;;;;;;5.40;2.70;;;23.30;50.20;;;;;;6151463;28;80587;-58
2023/05/31 00:40:24;;;;;;;4.85;3.10;;;23.30;50.10;;;;;;6152238;28;83483;-63
2023/05/31 00:43:26;;;;;;;3.95;2.25;;;23.30;50.20;;;;;;6151440;28;84207;-65
2023/05/31 00:46:27;;;;;;;5.80;3.05;;;23.30;50.00;;;;;;6150016;28;81899;-63
2023/05/31 00:49:28;;;;;;;5.07;2.47;;;23.30;49.90;;;;;;6152675;28;80323;-63
2023/05/31 00:52:29;;;;;;;4.97;2.70;;;23.30;49.80;;;;;;6151495;28;81321;-63
2023/05/31 00:55:30;;;;;;;5.13;2.42;;;23.30;49.90;;;;;;6150363;28;82023;-63
2023/05/31 00:58:30;;;;;;;3.42;2.28;;;23.30;50.60;;;;;;6133047;28;83251;-61
2023/05/31 01:01:33;;;;;;;4.20;2.58;;;23.30;49.90;;;;;;6146226;28;80484;-61
2023/05/31 01:04:34;;;;;;;5.35;2.78;;;23.30;49.90;;;;;;6149343;28;80598;-62
2023/05/31 01:07:35;;;;;;;5.25;3.08;;;23.30;49.70;;;;;;6146998;28;81413;-65
2023/05/31 01:10:35;;;;;;;5.10;2.60;;;23.30;49.90;;;;;;6148368;28;80352;-61
2023/05/31 01:13:36;;;;;;;6.18;3.10;;;23.30;49.90;;;;;;6149379;28;80815;-62
2023/05/31 01:16:38;;;;;;;4.18;2.60;;;23.30;49.70;;;;;;6151340;28;80969;-55
2023/05/31 01:19:39;;;;;;;5.32;2.75;;;23.30;49.60;;;;;;6152120;28;83905;-56
2023/05/31 01:22:41;;;;;;;4.82;2.55;;;23.30;49.60;;;;;;6150023;28;83514;-57
2023/05/31 01:25:41;;;;;;;3.88;2.25;;;23.30;49.60;;;;;;6148848;28;83351;-59
2023/05/31 01:28:42;;;;;;;3.95;2.38;;;23.30;49.70;;;;;;6144548;28;83326;-59
2023/05/31 01:31:43;;;;;;;9.02;3.00;;;23.30;49.60;;;;;;6142425;28;81699;-57
2023/05/31 01:34:45;;;;;;;5.20;2.60;;;23.30;49.60;;;;;;6151575;28;80497;-63
2023/05/31 01:37:45;;;;;;;4.20;2.47;;;23.30;49.70;;;;;;6166431;28;82404;-65
2023/05/31 01:40:46;;;;;;;4.95;2.72;;;23.30;49.70;;;;;;6167061;28;80554;-64
2023/05/31 01:43:47;;;;;;;12.98;4.05;;;23.20;49.60;;;;;;6156045;28;86738;-65
2023/05/31 01:46:47;;;;;;;4.35;2.30;;;23.30;49.50;;;;;;6155998;28;80221;-67
2023/05/31 01:49:48;;;;;;;6.70;3.20;;;23.20;49.70;;;;;;6154895;28;80515;-64
2023/05/31 01:52:48;;;;;;;5.03;2.60;;;23.20;49.60;;;;;;6162405;28;82896;-66
2023/05/31 01:55:49;;;;;;;5.45;2.75;;;23.20;49.60;;;;;;6155527;28;80329;-66
2023/05/31 01:58:49;;;;;;;5.35;2.28;;;23.20;49.50;;;;;;6156607;28;80436;-65
2023/05/31 02:01:50;;;;;;;4.38;2.28;;;23.20;50.30;;;;;;6154336;28;82560;-67
2023/05/31 02:04:51;;;;;;;3.95;2.42;;;23.20;49.60;;;;;;6156185;28;80594;-67
2023/05/31 02:07:53;;;;;;;6.40;2.75;;;23.20;49.60;;;;;;6170682;28;82020;-67
2023/05/31 02:10:54;;;;;;;4.00;2.53;;;23.20;49.60;;;;;;6155449;28;80591;-66
2023/05/31 02:13:55;;;;;;;3.42;2.17;;;23.20;49.70;;;;;;6156821;28;83382;-62
2023/05/31 02:16:56;;;;;;;4.78;2.80;;;23.20;49.70;;;;;;6158802;28;82104;-63
2023/05/31 02:19:56;;;;;;;4.63;2.40;;;23.20;49.60;;;;;;6169721;28;82019;-62
2023/05/31 02:22:57;;;;;;;4.32;2.42;;;23.20;49.70;;;;;;6161345;28;82613;-62
2023/05/31 02:25:57;;;;;;;3.40;2.38;;;23.10;49.60;;;;;;6156516;28;80567;-62
2023/05/31 02:28:59;;;;;;;8.40;2.90;;;23.20;49.70;;;;;;6151472;28;80755;-62
2023/05/31 02:31:59;;;;;;;3.17;1.90;;;23.20;49.90;;;;;;6154871;28;80134;-62
2023/05/31 02:35:00;;;;;;;3.45;2.22;;;23.20;49.50;;;;;;6154734;28;80389;-62
2023/05/31 02:38:00;;;;;;;5.70;2.88;;;23.20;49.70;;;;;;6158270;28;81280;-60
2023/05/31 02:41:01;;;;;;;3.60;2.22;;;23.20;49.70;;;;;;6154429;28;81354;-61
2023/05/31 02:44:01;;;;;;;3.05;2.33;;;23.10;49.60;;;;;;6160126;28;83434;-61
2023/05/31 02:47:02;;;;;;;6.55;2.85;;;23.20;49.60;;;;;;6163182;28;81950;-63
2023/05/31 02:50:03;;;;;;;3.55;2.30;;;23.10;49.50;;;;;;6145475;28;82012;-62
2023/05/31 02:53:05;;;;;;;6.72;3.00;;;23.10;49.60;;;;;;6162496;28;80133;-62
2023/05/31 02:56:11;;;;;;;5.57;2.67;;;23.10;49.50;;;;;;6150449;28;83439;-62
2023/05/31 02:59:30;;;;;;;4.22;2.58;;;23.20;49.60;;;;;;6153692;28;84814;-65
2023/05/31 03:02:41;;;;;;;3.05;2.20;;;23.10;49.50;;;;;;6154036;28;80694;-64
2023/05/31 03:05:54;;;;;;;5.50;2.50;;;23.20;49.70;;;;;;6151769;28;82185;-67
2023/05/31 03:08:54;;;;;;;4.22;2.80;;;23.10;49.50;;;;;;6155942;28;83188;-66
2023/05/31 03:11:55;;;;;;;5.90;2.72;;;23.20;49.80;;;;;;6165947;28;82870;-66
2023/05/31 03:14:57;;;;;;;6.80;2.85;;;23.10;49.60;;;;;;6152510;28;82418;-63
2023/05/31 03:17:57;;;;;;;5.22;2.95;;;23.10;49.50;;;;;;6154880;28;80569;-63
2023/05/31 03:20:58;;;;;;;5.15;3.30;;;23.10;49.50;;;;;;6152593;28;83225;-67
2023/05/31 03:23:59;;;;;;;4.78;2.88;;;23.10;49.60;;;;;;6151203;28;83264;-62
2023/05/31 03:27:00;;;;;;;4.40;2.80;;;23.10;49.60;;;;;;6160339;28;83401;-68
2023/05/31 03:30:02;;;;;;;4.72;2.60;;;23.10;49.60;;;;;;6141276;28;82756;-70
2023/05/31 03:33:04;;;;;;;5.10;2.90;;;23.10;49.50;;;;;;6152557;28;81437;-68
2023/05/31 03:36:05;;;;;;;6.40;3.42;;;23.10;49.50;;;;;;6147592;28;82201;-68
2023/05/31 03:39:06;;;;;;;6.57;2.80;;;23.10;49.50;;;;;;6146344;28;80628;-72
2023/05/31 03:42:06;;;;;;;3.38;2.00;;;23.10;49.50;;;;;;6148327;28;81583;-70
2023/05/31 03:45:07;;;;;;;4.88;2.70;;;23.10;49.60;;;;;;6168420;28;83727;-65
2023/05/31 03:48:08;;;;;;;3.05;2.58;;;23.20;49.40;;;;;;6165871;28;82364;-67
2023/05/31 03:51:08;;;;;;;8.27;3.22;;;23.10;49.30;;;;;;6150661;28;80258;-65
2023/05/31 03:54:09;;;;;;;7.50;3.15;;;23.10;49.30;;;;;;6150751;28;81382;-68
2023/05/31 03:57:09;;;;;;;7.35;2.70;;;23.10;49.50;;;;;;6147419;28;83897;-69
2023/05/31 04:00:13;;;;;;;8.05;2.95;;;23.20;49.50;;;;;;6152187;28;82491;-65
2023/05/31 04:03:23;;;;;;;4.13;2.70;;;23.20;49.40;;;;;;6148642;28;82776;-63
2023/05/31 04:06:26;;;;;;;7.43;2.90;;;23.10;49.70;;;;;;6151395;28;83287;-66
2023/05/31 04:09:28;;;;;;;3.88;2.72;;;23.20;49.70;;;;;;6167963;28;82749;-70
2023/05/31 04:12:29;;;;;;;7.13;3.05;;;23.20;49.90;;;;;;6158190;28;83448;-58
2023/05/31 04:15:29;;;;;;;6.68;3.28;;;23.20;49.70;;;;;;6161099;28;83138;-67
2023/05/31 04:18:33;;;;;;;4.22;2.60;;;23.20;49.70;;;;;;6144656;28;83670;-63
2023/05/31 04:21:35;;;;;;;5.07;3.00;;;23.20;49.90;;;;;;6146915;28;82445;-67
2023/05/31 04:24:35;;;;;;;8.07;3.17;;;23.20;50.10;;;;;;6158807;28;83769;-62
2023/05/31 04:27:38;;;;;;;5.05;3.00;;;23.20;50.60;;;;;;6150561;28;81640;-65
2023/05/31 04:30:40;;;;;;;6.50;3.03;;;23.20;50.60;;;;;;6141975;28;83239;-71
2023/05/31 04:33:42;;;;;;;4.97;2.95;;;23.20;51.00;;;;;;6149260;28;83153;-65
2023/05/31 04:36:44;;;;;;;9.82;3.10;;;23.20;50.90;;;;;;6148218;28;83606;-66
2023/05/31 04:39:44;;;;;;;11.77;2.97;;;23.30;51.00;;;;;;6162952;28;81231;-64
2023/05/31 04:42:48;;;;;;;10.45;3.40;;;23.20;50.80;;;;;;6153466;28;82787;-64
2023/05/31 04:46:00;;;;;;;9.20;3.20;;;23.30;51.10;;;;;;6150324;28;80458;-63
2023/05/31 04:49:01;;;;;;;7.60;2.95;;;23.30;51.30;;;;;;6135036;28;83642;-63
2023/05/31 04:52:01;;;;;;;6.65;3.50;;;23.30;51.00;;;;;;6147398;28;80370;-64
2023/05/31 04:55:02;;;;;;;9.57;3.58;;;23.30;50.80;;;;;;6146981;28;83457;-62
2023/05/31 04:58:03;;;;;;;7.65;3.28;;;23.30;50.70;;;;;;6144962;28;85590;-62
2023/05/31 05:01:03;;;;;;;9.30;3.28;;;23.30;50.60;;;;;;6149030;28;80519;-61
2023/05/31 05:04:11;;;;;;;11.75;3.42;;;23.30;51.10;;;;;;6149464;28;83594;-66
2023/05/31 05:07:12;;;;;;;6.95;2.88;;;23.30;51.00;;;;;;6150886;28;82990;-66
2023/05/31 05:10:13;;;;;;;6.20;2.95;;;23.40;50.80;;;;;;6148009;28;82064;-65
2023/05/31 05:13:13;;;;;;;6.53;2.80;;;23.40;50.60;;;;;;6150468;28;83159;-66
2023/05/31 05:16:16;;;;;;;12.43;3.20;;;23.40;50.60;;;;;;6147468;28;81052;-66
2023/05/31 05:19:17;;;;;;;6.50;2.65;;;23.40;50.50;;;;;;6141425;28;82329;-66
2023/05/31 05:22:18;;;;;;;7.20;2.90;;;23.30;50.30;;;;;;6143316;28;83283;-67
2023/05/31 05:25:18;;;;;;;7.78;3.15;;;23.40;50.30;;;;;;6132847;28;83611;-62
2023/05/31 05:28:19;;;;;;;7.55;2.90;;;23.40;50.10;;;;;;6135338;28;82403;-64
2023/05/31 05:31:20;;;;;;;8.35;2.80;;;23.30;50.00;;;;;;6142273;28;83066;-68
2023/05/31 05:34:21;;;;;;;9.27;3.30;;;23.40;50.00;;;;;;6142544;28;83591;-66
2023/05/31 05:37:22;;;;;;;5.75;3.13;;;23.40;49.90;;;;;;6142469;28;86531;-66
2023/05/31 05:40:22;;;;;;;5.88;2.75;;;23.40;49.90;;;;;;6142616;28;81846;-65
2023/05/31 05:43:23;;;;;;;5.82;3.08;;;23.40;49.90;;;;;;6149118;28;83003;-66
2023/05/31 05:46:37;;;;;;;8.18;4.32;;;23.40;49.90;;;;;;6158721;28;83251;-65
2023/05/31 05:49:38;;;;;;;9.32;3.75;;;23.40;50.20;;;;;;6150076;28;82264;-66
2023/05/31 05:52:41;;;;;;;10.50;4.50;;;23.40;50.40;;;;;;6147182;28;81969;-66
2023/05/31 05:55:44;;;;;;;9.63;4.47;;;23.50;50.50;;;;;;6066159;28;84888;-68
2023/05/31 05:58:48;;;;;;;8.52;4.00;;;23.50;50.30;;;;;;6148295;28;82016;-64
2023/05/31 06:02:12;;;;;;;8.35;4.65;;;23.50;50.20;;;;;;6149746;28;80151;-66
2023/05/31 06:05:13;;;;;;;8.95;3.88;;;23.50;50.10;;;;;;6156707;28;81967;-67
2023/05/31 06:08:14;;;;;;;9.43;4.70;;;23.50;50.00;;;;;;6147743;28;83329;-67
2023/05/31 06:11:18;;;;;;;8.82;4.45;;;23.50;50.00;;;;;;6141549;28;81546;-61
2023/05/31 06:14:19;;;;;;;9.90;3.38;;;23.50;49.90;;;;;;6154078;28;87476;-60
2023/05/31 06:17:24;;;;;;;10.85;4.75;;;23.50;49.80;;;;;;6141358;28;83822;-60
2023/05/31 06:20:25;;;;;;;8.55;3.63;;;23.50;49.80;;;;;;6149004;28;82294;-60
2023/05/31 06:23:25;;;;;;;8.13;4.05;;;23.50;49.70;;;;;;6149295;28;83338;-59
2023/05/31 06:26:26;;;;;;;6.38;3.58;;;23.50;49.70;;;;;;6149665;28;83456;-60
2023/05/31 06:29:27;;;;;;;9.27;3.63;;;23.50;49.70;;;;;;6150927;28;83944;-59
2023/05/31 06:32:48;;;;;;;5.72;3.55;;;23.50;49.70;;;;;;6143422;28;80983;-58
2023/05/31 06:35:57;;;;;;;8.50;3.25;;;23.50;49.70;;;;;;6154567;28;82063;-59
2023/05/31 06:38:58;;;;;;;7.13;3.97;;;23.50;49.60;;;;;;6152101;28;83314;-59
2023/05/31 06:41:59;;;;;;;5.05;3.33;;;23.50;49.70;;;;;;6154300;28;80679;-59
2023/05/31 06:45:26;;;;;;;8.80;3.45;;;23.50;49.60;;;;;;6141215;28;81210;-61
2023/05/31 06:48:26;;;;;;;7.40;3.35;;;23.50;49.60;;;;;;6154441;28;80448;-59
2023/05/31 06:52:02;;;;;;;9.57;3.58;;;23.60;49.60;;;;;;6122531;28;82350;-60
2023/05/31 06:55:03;;;;;;;6.80;3.92;;;23.60;49.70;;;;;;6152847;28;80117;-58
2023/05/31 06:58:03;;;;;;;6.78;3.28;;;23.60;49.60;;;;;;6152643;28;82086;-59
2023/05/31 07:01:07;;;;;;;6.78;3.25;;;23.60;49.60;;;;;;6152599;28;83141;-59
2023/05/31 07:04:07;;;;;;;6.82;3.70;;;23.60;49.60;;;;;;6153378;28;83182;-59
2023/05/31 07:07:09;;;;;;;7.72;3.35;;;23.60;49.60;;;;;;6151057;28;80824;-60
2023/05/31 07:10:10;;;;;;;6.75;3.00;;;23.60;49.60;;;;;;6151285;28;83005;-60
2023/05/31 07:13:10;;;;;;;5.25;3.03;;;23.70;49.60;;;;;;6153247;28;80875;-59
2023/05/31 07:16:11;;;;;;;5.82;3.03;;;23.60;49.80;;;;;;6151929;28;83903;-59
2023/05/31 07:19:12;;;;;;;5.53;2.97;;;23.70;49.60;;;;;;6153285;28;81459;-61
2023/05/31 07:22:14;;;;;;;7.63;3.22;;;23.70;49.70;;;;;;6150683;28;82906;-59
2023/05/31 07:25:15;;;;;;;5.88;2.92;;;23.70;50.00;;;;;;6146636;28;83824;-58
2023/05/31 07:28:15;;;;;;;4.50;2.50;;;23.70;49.90;;;;;;6150994;28;81262;-59
2023/05/31 07:31:16;;;;;;;5.65;3.35;;;23.70;50.00;;;;;;6148788;28;81694;-59
2023/05/31 07:34:16;;;;;;;5.65;2.78;;;23.70;50.00;;;;;;6152092;28;80737;-60
2023/05/31 07:37:17;;;;;;;4.20;2.58;;;23.70;50.10;;;;;;6151891;28;83864;-59
2023/05/31 07:40:17;;;;;;;4.53;2.70;;;23.70;50.20;;;;;;6151755;28;80423;-59
2023/05/31 07:43:21;;;;;;;4.45;2.72;;;23.70;50.10;;;;;;6153440;28;80243;-60
2023/05/31 07:46:21;;;;;;;5.30;2.90;;;23.80;50.20;;;;;;6150439;28;84124;-59
2023/05/31 07:49:22;;;;;;;5.63;3.40;;;23.80;50.10;;;;;;6152520;28;80930;-60
2023/05/31 07:52:23;;;;;;;4.45;2.67;;;23.80;50.10;;;;;;6151953;28;82293;-59
2023/05/31 07:55:25;;;;;;;4.63;2.97;;;23.80;50.10;;;;;;6137833;28;80950;-60
2023/05/31 07:58:25;;;;;;;5.57;3.13;;;23.80;50.20;;;;;;6152394;28;81266;-59
2023/05/31 08:01:26;;;;;;;4.75;2.78;;;23.80;50.20;;;;;;6152940;28;81538;-64
2023/05/31 08:04:26;;;;;;;6.43;2.80;;;23.80;50.20;;;;;;6152248;28;80653;-65
2023/05/31 08:07:27;;;;;;;4.40;2.67;;;23.80;50.40;;;;;;6152248;28;80608;-67
2023/05/31 08:10:29;;;;;;;5.07;3.03;;;23.80;50.20;;;;;;6154329;28;80206;-67
2023/05/31 08:13:30;;;;;;;5.93;2.70;;;23.90;50.30;;;;;;6152217;28;80929;-68
2023/05/31 08:16:30;;;;;;;7.40;2.53;;;23.90;50.30;;;;;;6151622;28;81332;-67
2023/05/31 08:19:31;;;;;;;5.38;2.70;;;23.90;50.40;;;;;;6152505;28;80453;-66
2023/05/31 08:22:31;;;;;;;6.32;2.83;;;23.90;50.40;;;;;;6151098;28;80903;-66
2023/05/31 08:25:32;;;;;;;5.03;2.78;;;23.90;50.50;;;;;;6147603;28;80596;-65
2023/05/31 08:28:33;;;;;;;4.38;2.53;;;23.90;50.40;;;;;;6151090;28;80678;-65
2023/05/31 08:31:34;;;;;;;7.22;2.85;;;23.90;50.30;;;;;;6149857;28;83014;-64
2023/05/31 08:34:35;;;;;;;4.57;2.70;;;23.90;50.30;;;;;;6149948;28;83119;-66
2023/05/31 08:37:35;;;;;;;5.13;2.67;;;23.90;49.10;;;;;;6148854;28;80560;-57
2023/05/31 08:40:36;;;;;;;8.15;3.13;;;23.90;48.30;;;;;;6150283;28;81169;-58
2023/05/31 08:43:36;;;;;;;4.57;2.60;;;23.80;48.50;;;;;;6151607;28;81895;-57
2023/05/31 08:46:37;;;;;;;6.25;2.85;;;23.90;48.30;;;;;;6152128;28;80593;-58
2023/05/31 08:49:37;;;;;;;5.50;2.42;;;23.90;48.20;;;;;;6149279;28;82594;-57
2023/05/31 08:52:38;;;;;;;5.55;2.35;;;23.90;48.50;;;;;;6150977;28;80953;-57
2023/05/31 08:55:38;;;;;;;5.05;2.33;;;23.90;48.50;;;;;;6151049;28;80604;-57
2023/05/31 08:58:39;;;;;;;5.18;2.53;;;23.90;48.20;;;;;;6152414;28;80414;-58
2023/05/31 09:01:39;;;;;;;4.22;2.92;;;23.90;46.60;;;;;;6151972;28;80959;-57
2023/05/31 09:04:40;;;;;;;7.63;2.33;;;23.90;47.50;;;;;;6152089;28;80314;-58
2023/05/31 09:07:40;;;;;;;4.07;2.10;;;23.90;46.60;;;;;;6151155;28;82165;-59
2023/05/31 09:10:41;;;;;;;8.18;2.70;;;23.90;47.70;;;;;;6150696;28;81051;-59
2023/05/31 09:13:41;;;;;;;6.75;2.03;;;23.90;47.80;;;;;;6152679;28;80430;-59
2023/05/31 09:16:42;;;;;;;4.22;2.40;;;23.90;46.80;;;;;;6152250;28;80460;-63
2023/05/31 09:19:43;;;;;;;5.50;2.10;;;23.90;45.70;;;;;;6152628;28;80494;-67
2023/05/31 09:22:43;;;;;;;4.30;2.58;;;23.90;45.20;;;;;;6152592;28;81019;-66
2023/05/31 09:25:44;;;;;;;4.32;2.40;;;23.90;44.80;;;;;;6152531;28;80617;-66
2023/05/31 09:28:44;;;;;;;5.22;2.60;;;23.90;44.60;;;;;;6147290;28;81724;-65
2023/05/31 09:31:45;;;;;;;3.95;2.15;;;23.90;44.10;;;;;;6146729;28;81345;-64
2023/05/31 09:34:46;;;;;;;8.85;2.47;;;23.90;43.70;;;;;;6150359;28;80677;-57
2023/05/31 09:37:46;;;;;;;5.80;2.15;;;23.90;43.50;;;;;;6151644;28;82836;-57
2023/05/31 09:40:47;;;;;;;4.07;2.58;;;23.90;43.50;;;;;;6151488;28;80327;-56
2023/05/31 09:43:48;;;;;;;6.30;2.17;;;23.90;43.70;;;;;;6151659;28;80392;-57
2023/05/31 09:46:48;;;;;;;5.50;2.40;;;23.90;43.20;;;;;;6152116;28;80312;-58
2023/05/31 09:49:49;;;;;;;3.67;2.47;;;24.00;42.80;;;;;;6149998;28;80265;-58
2023/05/31 09:52:51;;;;;;;5.20;2.60;;;24.00;43.40;;;;;;6149159;28;80190;-67
2023/05/31 09:55:52;;;;;;;12.10;2.95;;;24.00;43.00;;;;;;6149509;28;81887;-65
2023/05/31 09:58:52;;;;;;;4.78;2.03;;;24.00;43.20;;;;;;6147242;28;80871;-66
2023/05/31 10:01:53;;;;;;;5.72;2.05;;;24.00;43.00;;;;;;6150583;28;81960;-66
2023/05/31 10:04:54;;;;;;;6.72;2.60;;;24.00;42.40;;;;;;6154340;28;80622;-66
2023/05/31 10:07:54;;;;;;;5.13;2.10;;;24.00;43.10;;;;;;6152841;28;80535;-66
2023/05/31 10:10:55;;;;;;;3.83;2.00;;;24.00;42.70;;;;;;6155453;28;81706;-59
2023/05/31 10:13:55;;;;;;;5.53;2.35;;;24.00;42.40;;;;;;6155146;28;80577;-60
2023/05/31 10:16:56;;;;;;;4.53;2.00;;;24.00;42.00;;;;;;6154272;28;80439;-58
2023/05/31 10:19:56;;;;;;;12.55;2.88;;;24.00;42.30;;;;;;6155826;28;82369;-58
2023/05/31 10:22:57;;;;;;;7.07;2.40;;;24.00;42.50;;;;;;6154588;28;80564;-59
2023/05/31 10:25:57;;;;;;;4.75;2.83;;;24.00;42.60;;;;;;6130016;28;84613;-59
2023/05/31 10:28:58;;;;;;;3.75;1.90;;;24.00;42.80;;;;;;6151509;28;80479;-63
2023/05/31 10:31:58;;;;;;;8.07;2.60;;;24.10;42.40;;;;;;6152854;28;81624;-61
2023/05/31 10:34:59;;;;;;;3.60;2.03;;;24.10;41.80;;;;;;6139281;28;83279;-60
2023/05/31 10:38:00;;;;;;;3.90;2.33;;;24.10;41.90;;;;;;6153212;28;80500;-65
2023/05/31 10:41:00;;;;;;;5.85;2.72;;;24.10;42.40;;;;;;6152793;28;82790;-66
2023/05/31 10:44:01;;;;;;;6.25;2.38;;;24.00;41.80;;;;;;6154680;28;80367;-66
2023/05/31 10:47:01;;;;;;;7.22;2.75;;;24.00;42.10;;;;;;6153695;28;81211;-68
2023/05/31 10:50:03;;;;;;;6.47;2.50;;;24.00;41.60;;;;;;6154745;28;81940;-68
2023/05/31 10:53:03;;;;;;;5.65;2.72;;;24.00;41.90;;;;;;6153802;28;80470;-66
2023/05/31 10:56:04;;;;;;;7.80;2.70;;;24.00;41.90;;;;;;6155452;28;80669;-64
2023/05/31 10:59:05;;;;;;;6.53;2.88;;;24.10;42.00;;;;;;6151561;28;80327;-66
2023/05/31 11:02:05;;;;;;;8.25;2.50;;;24.10;41.70;;;;;;6151218;28;80289;-63
2023/05/31 11:05:06;;;;;;;7.22;3.10;;;24.20;42.00;;;;;;6152549;28;80529;-66
2023/05/31 11:08:06;;;;;;;6.07;2.33;;;24.10;41.20;;;;;;6151831;28;80400;-66
2023/05/31 11:11:07;;;;;;;5.78;2.40;;;24.10;42.00;;;;;;6153613;28;80719;-66
2023/05/31 11:14:07;;;;;;;5.20;2.35;;;24.20;41.80;;;;;;6152686;28;82271;-69
2023/05/31 11:17:08;;;;;;;4.93;2.30;;;24.20;41.70;;;;;;6140909;28;83658;-69
2023/05/31 11:20:09;;;;;;;6.10;2.35;;;24.10;41.50;;;;;;6151353;28;80819;-70
2023/05/31 11:23:10;;;;;;;6.03;2.53;;;24.10;41.00;;;;;;6157864;28;83324;-58
2023/05/31 11:26:10;;;;;;;6.47;2.55;;;24.10;41.00;;;;;;6150846;28;80705;-58
2023/05/31 11:29:11;;;;;;;6.38;2.40;;;24.10;41.10;;;;;;6151440;28;85969;-60
2023/05/31 11:32:11;;;;;;;4.80;3.00;;;24.10;40.90;;;;;;6149604;28;80545;-58
2023/05/31 11:35:13;;;;;;;4.80;2.67;;;24.10;41.60;;;;;;6152223;28;81843;-58
2023/05/31 11:38:13;;;;;;;6.63;2.63;;;24.10;41.60;;;;;;6151181;28;80594;-59
2023/05/31 11:41:14;;;;;;;7.63;2.50;;;24.10;41.90;;;;;;6152261;28;82230;-65
2023/05/31 11:44:14;;;;;;;5.15;2.22;;;24.20;41.90;;;;;;6152429;28;80741;-67
2023/05/31 11:47:15;;;;;;;9.98;2.70;;;24.20;41.50;;;;;;6151675;28;80765;-68
2023/05/31 11:50:18;;;;;;;10.70;2.95;;;24.10;41.20;;;;;;6151839;28;80399;-67
2023/05/31 11:53:19;;;;;;;5.45;2.70;;;24.10;41.00;;;;;;6151776;28;83669;-66
2023/05/31 11:56:19;;;;;;;4.57;2.67;;;24.10;41.00;;;;;;6151762;28;82077;-66
2023/05/31 11:59:20;;;;;;;6.75;2.97;;;24.00;40.60;;;;;;6151839;28;80422;-67
2023/05/31 12:02:20;;;;;;;5.35;2.50;;;24.10;41.30;;;;;;6150807;28;80253;-65
2023/05/31 12:05:22;;;;;;;6.93;2.80;;;24.10;41.50;;;;;;6152485;28;81009;-66
2023/05/31 12:08:22;;;;;;;7.93;2.35;;;24.10;41.70;;;;;;6153252;28;80967;-67
2023/05/31 12:11:23;;;;;;;12.77;3.45;;;24.20;41.80;;;;;;6153776;28;81151;-68
2023/05/31 12:14:23;;;;;;;7.03;3.00;;;24.20;41.50;;;;;;6150856;28;84129;-66
2023/05/31 12:17:24;;;;;;;12.52;2.85;;;24.10;41.30;;;;;;6153637;28;82775;-66
2023/05/31 12:20:25;;;;;;;7.70;3.10;;;24.10;41.50;;;;;;6152602;28;80805;-58
2023/05/31 12:23:27;;;;;;;5.47;2.60;;;24.20;42.40;;;;;;6151633;28;80342;-57
2023/05/31 12:26:28;;;;;;;5.18;2.63;;;24.20;42.20;;;;;;6151633;28;80388;-59
2023/05/31 12:29:28;;;;;;;7.50;3.55;;;24.20;42.30;;;;;;6148403;28;80517;-58
2023/05/31 12:32:29;;;;;;;6.57;2.60;;;24.20;41.70;;;;;;6152502;28;80462;-58
2023/05/31 12:35:30;;;;;;;8.80;3.35;;;24.20;41.10;;;;;;6152448;28;80823;-56
2023/05/31 12:38:31;;;;;;;8.70;2.78;;;24.10;41.20;;;;;;6152366;28;80642;-67
2023/05/31 12:41:32;;;;;;;6.13;2.83;;;24.10;41.30;;;;;;6152792;28;80251;-65
2023/05/31 12:44:32;;;;;;;8.60;2.90;;;24.10;41.20;;;;;;6152171;28;81244;-66
2023/05/31 12:47:32;;;;;;;5.20;2.80;;;24.10;41.10;;;;;;6152142;28;80223;-69
2023/05/31 12:50:33;;;;;;;4.78;2.47;;;24.10;41.40;;;;;;6150893;28;82465;-67
2023/05/31 12:53:34;;;;;;;7.47;2.95;;;24.10;41.40;;;;;;6151812;28;81582;-66
2023/05/31 12:56:34;;;;;;;9.02;3.63;;;24.10;41.40;;;;;;6150107;28;80603;-59
2023/05/31 12:59:35;;;;;;;7.35;2.35;;;24.10;41.80;;;;;;6151126;28;82434;-58
2023/05/31 13:02:35;;;;;;;5.82;2.60;;;24.10;41.80;;;;;;6150369;28;80890;-59
2023/05/31 13:05:36;;;;;;;7.35;2.67;;;24.20;42.20;;;;;;6151392;28;82381;-58
2023/05/31 13:08:36;;;;;;;3.90;2.58;;;24.20;42.80;;;;;;6150479;28;83026;-58
2023/05/31 13:11:37;;;;;;;5.25;2.40;;;24.20;42.60;;;;;;6151134;28;81293;-59
2023/05/31 13:14:37;;;;;;;3.85;2.35;;;24.20;42.40;;;;;;6151698;28;80832;-58
2023/05/31 13:17:38;;;;;;;6.40;2.72;;;24.20;42.60;;;;;;6152155;28;80344;-57
2023/05/31 13:20:39;;;;;;;8.35;2.60;;;24.20;42.60;;;;;;6150135;28;82223;-60
2023/05/31 13:23:39;;;;;;;7.78;2.83;;;24.20;42.40;;;;;;6151434;28;80365;-57
2023/05/31 13:26:40;;;;;;;6.97;3.25;;;24.20;42.30;;;;;;6150339;28;82101;-57
2023/05/31 13:29:40;;;;;;;4.68;2.58;;;24.10;42.40;;;;;;6134967;28;81871;-59
2023/05/31 13:32:41;;;;;;;6.10;2.80;;;24.20;42.10;;;;;;6148943;28;81960;-71
2023/05/31 13:35:41;;;;;;;6.20;2.80;;;24.10;41.20;;;;;;6148977;28;80523;-69
2023/05/31 13:38:42;;;;;;;6.55;3.28;;;24.10;41.90;;;;;;6149888;28;81539;-69
2023/05/31 13:41:43;;;;;;;6.28;2.35;;;24.10;41.20;;;;;;6151434;28;81288;-67
2023/05/31 13:44:43;;;;;;;4.38;2.40;;;24.10;41.20;;;;;;6151261;28;80299;-67
2023/05/31 13:47:44;;;;;;;6.05;2.13;;;24.00;41.00;;;;;;6149075;28;79977;-65
2023/05/31 13:50:45;;;;;;;6.97;2.53;;;24.00;40.80;;;;;;6150123;28;81414;-66
2023/05/31 13:53:45;;;;;;;4.78;2.88;;;24.00;41.50;;;;;;6151163;28;80436;-66
2023/05/31 13:56:46;;;;;;;6.80;2.63;;;24.10;41.70;;;;;;6133614;28;83859;-61
2023/05/31 13:59:46;;;;;;;5.13;2.50;;;24.10;41.40;;;;;;6147825;28;82450;-62
2023/05/31 14:02:47;;;;;;;8.50;2.88;;;24.10;41.70;;;;;;6149822;28;81323;-64
2023/05/31 14:05:50;;;;;;;9.88;2.70;;;24.20;41.70;;;;;;6134736;28;82916;-63
2023/05/31 14:08:51;;;;;;;7.85;2.60;;;24.30;41.60;;;;;;6149710;28;81505;-63
2023/05/31 14:11:51;;;;;;;7.82;2.85;;;24.30;41.50;;;;;;6157311;28;82290;-62
2023/05/31 14:14:52;;;;;;;6.80;3.83;;;24.40;41.90;;;;;;6148904;28;80682;-62
2023/05/31 14:17:53;;;;;;;11.95;5.13;;;24.30;42.20;;;;;;6150265;28;80983;-63
2023/05/31 14:20:53;;;;;;;11.45;3.45;;;24.40;42.40;;;;;;6138161;28;81389;-64
2023/05/31 14:23:54;;;;;;;10.00;3.05;;;24.40;42.30;;;;;;6148874;28;80591;-64
2023/05/31 14:26:54;;;;;;;6.05;2.78;;;24.40;42.10;;;;;;6149099;28;84491;-63
2023/05/31 14:29:55;;;;;;;7.63;3.25;;;24.40;42.90;;;;;;6162464;28;81251;-62
2023/05/31 14:32:56;;;;;;;8.40;2.75;;;24.40;43.00;;;;;;6149613;28;80365;-61
2023/05/31 14:35:56;;;;;;;6.60;2.65;;;24.40;43.50;;;;;;6148386;28;80569;-63
2023/05/31 14:38:57;;;;;;;9.25;2.85;;;24.50;43.90;;;;;;6142275;28;86023;-62
2023/05/31 14:41:57;;;;;;;10.70;3.15;;;24.50;44.40;;;;;;6149771;28;80493;-62
2023/05/31 14:45:03;;;;;;;8.07;2.75;;;24.50;44.00;;;;;;6150521;28;81834;-62
2023/05/31 14:48:03;;;;;;;12.82;3.22;;;24.50;43.30;;;;;;6148527;28;81297;-61
2023/05/31 14:51:04;;;;;;;4.63;2.60;;;24.40;43.60;;;;;;6123475;28;82972;-61
2023/05/31 14:54:05;;;;;;;4.88;2.17;;;24.40;43.50;;;;;;6122419;28;82457;-63
2023/05/31 14:57:06;;;;;;;7.00;2.38;;;24.40;43.50;;;;;;6131135;28;81695;-61
2023/05/31 15:00:06;;;;;;;11.00;2.15;;;24.40;43.40;;;;;;6134007;28;83448;-62
2023/05/31 15:03:07;;;;;;;8.02;2.35;;;24.40;43.40;;;;;;6133694;28;86091;-63
2023/05/31 15:06:08;;;;;;;10.48;2.55;;;24.40;43.20;;;;;;6133789;28;85337;-63
2023/05/31 15:09:10;;;;;;;6.00;2.55;;;24.40;43.30;;;;;;6140954;28;81564;-60
2023/05/31 15:12:11;;;;;;;8.00;2.67;;;24.40;43.10;;;;;;6148810;28;82774;-63
2023/05/31 15:15:13;;;;;;;7.15;2.67;;;24.40;43.10;;;;;;6150440;28;80316;-60
2023/05/31 15:18:14;;;;;;;10.05;2.25;;;24.40;43.30;;;;;;6143932;28;80593;-61
2023/05/31 15:21:14;;;;;;;9.10;2.90;;;24.40;43.20;;;;;;6148706;28;81530;-62
2023/05/31 15:24:15;;;;;;;5.63;2.50;;;24.40;43.30;;;;;;6151218;28;80398;-60
2023/05/31 15:27:16;;;;;;;4.07;2.53;;;24.40;43.60;;;;;;6151182;28;80750;-60
2023/05/31 15:30:16;;;;;;;9.20;2.40;;;24.40;43.20;;;;;;6146815;28;81090;-62
2023/05/31 15:33:17;;;;;;;5.68;2.25;;;24.30;42.90;;;;;;6151567;28;80863;-60
2023/05/31 15:36:17;;;;;;;6.40;2.10;;;24.30;43.40;;;;;;6153229;28;80317;-60
2023/05/31 15:39:19;;;;;;;6.72;2.53;;;24.30;43.20;;;;;;6154651;28;82442;-61
2023/05/31 15:42:20;;;;;;;5.82;2.50;;;24.30;43.20;;;;;;6153256;28;80766;-61